• Join FlightAware (Why Join?)
  • Login
  • US Flag 
03:36AM EST


 

Airport Tracker/Info


-or-


 

Live Flight TrackerFlight Track Log ✈ JBU960 ✈ 07-Jul-2013 ✈ MKJP / KIN - KJFK

Flight Track Log - Related Links

Times and Time Zones

All times are in EDT time to prevent confusion due to time zone crossing. See the JBU960 flight status page for this flight to view local times or setup timezone preferences in your user account.

Time Position Orientation Groundspeed Altitude Reporting Facility
EDT Latitude Longitude Course Direction KTS MPH feet Rate Location/Type
02:34AM 18.3865 -76.8299 355° North  Level FlightAware Approximate
02:35AM 18.4992 -76.8405 355° North  Level FlightAware Approximate
02:36AM 18.6119 -76.8512 355° North  Level FlightAware Approximate
02:37AM 18.7246 -76.8618 355° North  Level FlightAware Approximate
02:38AM 18.8374 -76.8725 355° North  Level FlightAware Approximate
02:39AM 18.9501 -76.8832 355° North  Level FlightAware Approximate
02:40AM 19.0628 -76.8939 355° North  Level FlightAware Approximate
02:41AM 19.1755 -76.9046 355° North  Level FlightAware Approximate
02:42AM 19.2882 -76.9154 355° North  Level FlightAware Approximate
02:43AM 19.4009 -76.9261 355° North  Level FlightAware Approximate
02:44AM 19.5136 -76.9369 355° North  Level FlightAware Approximate
02:45AM 19.6263 -76.9476 355° North  Level FlightAware Approximate
02:46AM 19.7390 -76.9584 355° North  Level FlightAware Approximate
02:47AM 19.8517 -76.9692 355° North  Level FlightAware Approximate
02:48AM 19.9644 -76.9801 355° North  Level FlightAware Approximate
02:49AM 20.0771 -76.9909 355° North  Level FlightAware Approximate
02:50AM 20.1898 -77.0018 355° North  Level FlightAware Approximate
02:51AM 20.3025 -77.0126 355° North  Level FlightAware Approximate
02:52AM 20.4152 -77.0235 355° North  Level FlightAware Approximate
02:53AM 20.5279 -77.0344 355° North  Level FlightAware Approximate
02:54AM 20.6198 -77.0443 354° North  Level FlightAware Approximate
02:55AM 20.7324 -77.0563 354° North  Level FlightAware Approximate
02:56AM 20.8450 -77.0683 354° North  Level FlightAware Approximate
02:57AM 20.9576 -77.0803 354° North  Level FlightAware Approximate
02:58AM 21.0702 -77.0923 354° North  Level FlightAware Approximate
02:59AM 21.1828 -77.1043 354° North  Level FlightAware Approximate
03:00AM 21.2954 -77.1164 354° North  Level FlightAware Approximate
03:01AM 21.4080 -77.1285 354° North  Level FlightAware Approximate
03:02AM 21.5206 -77.1406 354° North  Level FlightAware Approximate
03:03AM 21.6332 -77.1527 354° North  Level FlightAware Approximate
03:04AM 21.7458 -77.1648 354° North  Level FlightAware Approximate
03:05AM 21.8584 -77.1770 354° North  Level FlightAware Approximate
03:06AM 21.9710 -77.1892 354° North  Level FlightAware Approximate
03:07AM 22.0836 -77.2014 354° North  Level FlightAware Approximate
03:08AM 22.1962 -77.2136 354° North  Level FlightAware Approximate
03:09AM 22.3088 -77.2258 354° North  Level FlightAware Approximate
03:10AM 22.4214 -77.2381 354° North  Level FlightAware Approximate
03:11AM 22.5340 -77.2504 354° North  Level FlightAware Approximate
03:12AM 22.6465 -77.2626 354° North  Level FlightAware Approximate
03:13AM 22.7592 -77.2739 355° North  Level FlightAware Approximate
03:14AM 22.8719 -77.2847 355° North  Level FlightAware Approximate
03:14AM 22.7672 -77.3117 355° North 451 519 36,000  Level Miami Center
03:15AM 22.9847 -77.2955 355° North  Level FlightAware Approximate
03:15AM 22.8842 -77.3189 357° North 446 513 36,000  Level Miami Center
03:16AM 23.0974 -77.3064 355° North  Level FlightAware Approximate
03:16AM 23.0033 -77.3261 357° North 432 497 36,000  Level Miami Center
03:17AM 23.2101 -77.3172 355° North  Level FlightAware Approximate
03:17AM 23.1244 -77.3356 356° North 427 491 36,000  Level Miami Center
03:18AM 23.3228 -77.3280 355° North  Level FlightAware Approximate
03:18AM 23.2436 -77.3428 357° North 422 486 36,000  Level Miami Center
03:19AM 23.4355 -77.3389 355° North  Level FlightAware Approximate
03:19AM 23.3647 -77.3500 357° North 422 486 36,000  Level Miami Center
03:20AM 23.4797 -77.3572 357° North 422 486 36,000  Level Miami Center
03:21AM 23.6028 -77.3644 357° North 422 486 36,000  Level Miami Center
03:22AM 23.7178 -77.3672 359° North 422 486 36,000  Level Miami Center
03:23AM 23.8369 -77.3814 354° North 422 486 36,000  Level Miami Center
03:24AM 23.9561 -77.3842 359° North 422 486 36,000  Level Miami Center
03:25AM 24.0772 -77.3914 357° North 422 486 36,000  Level Miami Center
03:26AM 24.1942 -77.3989 357° North 422 486 36,000  Level Miami Center
03:27AM 24.3133 -77.4061 357° North 422 486 36,000  Level Miami Center
03:28AM 24.4325 -77.4111 358° North 422 486 36,000  Level Miami Center
03:29AM 24.5494 -77.4186 357° North 422 486 36,000  Level Miami Center
03:30AM 24.6686 -77.4261 357° North 422 486 36,000  Level Miami Center
03:31AM 24.7875 -77.4333 357° North 422 486 36,000  Level Miami Center
03:32AM 24.8964 -77.4383 358° North 415 478 36,000  Level Miami Center
03:33AM 25.0133 -77.4506 355° North 429 494 36,000  Level Miami Center
03:34AM 25.1428 -77.4533 359° North 440 506 36,100 360 Climbing Miami Center
03:35AM 25.2619 -77.4608 357° North 445 512 36,800 420 Climbing Miami Center
03:36AM 25.3769 -77.4706 356° North 426 490 37,000 60 Climbing Miami Center
03:37AM 25.5042 -77.4781 357° North 420 483 37,000  Level Miami Center
03:38AM 25.6233 -77.4833 358° North 420 483 37,000  Level Miami Center
03:39AM 25.7300 -77.4908 356° North 420 483 37,000  Level Miami Center
03:40AM 25.8447 -77.5006 356° North 420 483 37,000  Level Miami Center
03:41AM 25.9658 -77.5083 357° North 420 483 37,000  Level Miami Center
03:42AM 26.0831 -77.5133 358° North 420 483 37,000  Level Miami Center
03:43AM 26.2042 -77.5233 356° North 425 489 37,000  Level Miami Center
03:44AM 26.3211 -77.5264 359° North 425 489 37,000  Level Miami Center
03:45AM 26.4358 -77.5339 357° North 425 489 37,000  Level Miami Center
03:46AM 26.5550 -77.5417 357° North 425 489 37,000  Level Miami Center
03:47AM 26.6742 -77.5539 355° North 425 489 37,000  Level Miami Center
03:52AM 27.2930 -77.5860 355° North 415 478 37,000  Level FlightAware
03:53AM 27.3700 -77.5900 357° North 415 478 37,000  Level FlightAware
03:54AM 27.4290 -77.5940 357° North 415 478 37,000  Level FlightAware
03:54AM 27.5090 -77.5980 357° North 415 478 37,000  Level FlightAware
03:55AM 27.5690 -77.6020 357° North 415 478 37,000  Level FlightAware
03:56AM 27.6470 -77.6060 357° North 415 478 37,000  Level FlightAware
03:56AM 27.7060 -77.6100 357° North 415 478 37,000  Level FlightAware
03:57AM 27.7840 -77.6150 357° North 415 478 37,000  Level FlightAware
03:58AM 27.8390 -77.6180 357° North 415 478 37,000  Level FlightAware
03:59AM 27.9180 -77.6220 357° North 415 478 37,000  Level FlightAware
03:59AM 27.9810 -77.6260 357° North 415 478 37,000  Level FlightAware
03:59AM 28.0010 -77.6270 357° North 415 478 37,000  Level FlightAware
04:01AM 28.1460 -77.6360 357° North 415 478 37,000  Level FlightAware
04:01AM 28.2040 -77.6400 357° North 415 478 37,000  Level FlightAware
04:02AM 28.2810 -77.6440 357° North 415 478 37,000  Level FlightAware
04:03AM 28.5633 -77.6600 357° North 418 481 37,000  Level Miami Center
04:04AM 28.6886 -77.6681 357° North 428 493 37,000  Level Miami Center
04:05AM 28.8033 -77.6733 358° North 422 486 37,000  Level Miami Center
04:06AM 28.9203 -77.6792 358° North 416 479 37,000 -60 Level Miami Center
04:07AM 29.0475 -77.6894 356° North 432 497 36,900  Descending Miami Center
04:08AM 29.1767 -77.6928 359° North 439 505 37,000  Climbing Miami Center
04:09AM 29.2956 -77.7008 357° North 432 497 37,000 -60 Level Miami Center
04:10AM 29.4103 -77.7042 359° North 432 497 36,900 -60 Descending Miami Center
04:11AM 29.5333 -77.7122 357° North 442 509 36,900  Level Miami Center
04:13AM 29.8131 -77.7203 359° North 441 507 37,000  Climbing Jacksonville Center
04:14AM 29.9431 -77.7325 355° North 447 514 37,000  Level Jacksonville Center
04:15AM 30.0492 -77.7292 North 424 488 37,000 -60 Level Jacksonville Center
04:16AM 30.1769 -77.7417 355° North 438 504 36,900 -60 Descending Jacksonville Center
04:17AM 30.2936 -77.7353 North 438 504 36,900  Level Jacksonville Center
04:18AM 30.4128 -77.7408 358° North 438 504 36,900  Level Jacksonville Center
04:19AM 30.5322 -77.7539 355° North 438 504 37,000  Climbing Jacksonville Center
04:20AM 30.6517 -77.7594 358° North 432 497 37,000  Level Jacksonville Center
04:21AM 30.7708 -77.7650 358° North 427 491 37,000  Level Jacksonville Center
04:22AM 30.8919 -77.7706 358° North 427 491 37,000 -60 Level Jacksonville Center
04:23AM 31.0094 -77.7811 356° North 427 491 36,900  Descending Jacksonville Center
04:24AM 31.1308 -77.7917 356° North 427 491 37,000  Climbing Jacksonville Center
04:30AM 31.7710 -77.8260 356° North 434 499 37,000  Level FlightAware
04:30AM 31.8380 -77.8310 356° North 434 499 37,000  Level FlightAware
04:31AM 31.9010 -77.8340 358° North 434 499 37,000  Level FlightAware
04:32AM 31.9790 -77.8390 357° North 434 499 37,000  Level FlightAware
04:32AM 32.0610 -77.8440 357° North 434 499 37,000  Level FlightAware
04:33AM 32.1230 -77.8480 357° North 434 499 37,000  Level FlightAware
04:34AM 32.1860 -77.8520 357° North 434 499 37,000  Level FlightAware
04:34AM 32.2490 -77.8560 357° North 434 499 37,000  Level FlightAware
04:35AM 32.3310 -77.8610 357° North 434 499 37,000  Level FlightAware
04:36AM 32.3920 -77.8650 357° North 434 499 37,000  Level FlightAware
04:36AM 32.4740 -77.8700 357° North 434 499 37,000  Level FlightAware
04:37AM 32.5350 -77.8740 357° North 434 499 37,000  Level FlightAware
04:38AM 32.6120 -77.8790 357° North 434 499 37,000  Level FlightAware
04:38AM 32.6730 -77.8820 358° North 434 499 37,000  Level FlightAware
04:39AM 32.7600 -77.8880 357° North 434 499 37,000  Level FlightAware
04:45AM 33.6100 -77.4880 21° North 435 501 37,000  Level FlightAware
04:46AM 33.6980 -77.4480 21° North 435 501 37,000  Level FlightAware
04:47AM 33.7520 -77.4240 20° North 434 499 37,000  Level FlightAware
04:48AM 33.9130 -77.3500 21° North 435 501 37,000  Level FlightAware
04:49AM 33.9260 -77.3440 21° North 436 502 37,000  Level FlightAware
04:49AM 33.9920 -77.3150 20° North 436 502 37,000  Level FlightAware
04:50AM 34.0500 -77.2900 20° North 436 502 37,000  Level FlightAware
04:51AM 34.1500 -77.2460 20° North 436 502 37,000  Level FlightAware
04:52AM 34.2080 -77.2200 20° North 436 502 37,000  Level FlightAware
04:53AM 34.3050 -77.1770 20° North 436 502 37,000  Level FlightAware
04:53AM 34.3630 -77.1520 20° North 436 502 37,000  Level FlightAware
04:54AM 34.4400 -77.1180 20° North 436 502 37,000  Level FlightAware
04:55AM 34.5180 -77.0840 20° North 436 502 37,000  Level FlightAware
04:55AM 34.5770 -77.0570 21° North 436 502 37,000  Level FlightAware
04:56AM 34.6370 -77.0310 20° North 436 502 37,000  Level FlightAware
04:57AM 34.7110 -76.9980 20° North 436 502 37,000  Level FlightAware
04:58AM 34.7880 -76.9640 20° North 436 502 37,000  Level FlightAware
04:58AM 34.8430 -76.9400 20° North 436 502 37,000  Level FlightAware
04:59AM 35.1906 -76.7536 20° North 429 494 37,000  Level Washington Center
05:00AM 35.3039 -76.7017 21° North 434 499 37,000  Level Washington Center
05:01AM 35.4147 -76.6497 21° North 434 499 37,000  Level Washington Center
05:07AM 36.0890 -76.3240 21° North 442 509 37,000  Level FlightAware
05:08AM 36.1620 -76.2890 21° North 443 510 37,000  Level FlightAware
05:08AM 36.2410 -76.2500 22° Northeast 443 510 37,000  Level FlightAware
05:09AM 36.3180 -76.2130 21° North 436 502 37,000  Level FlightAware
05:10AM 36.4067 -76.1689 22° Northeast 443 510 37,000  Level FlightAware ADS-B
05:10AM 36.4651 -76.1403 21° North 443 510 37,000  Level FlightAware ADS-B
05:11AM 36.5225 -76.1122 21° North 443 510 37,000  Level FlightAware ADS-B
05:11AM 36.5807 -76.0836 22° Northeast 441 507 37,000  Level FlightAware ADS-B
05:12AM 36.6407 -76.0540 22° Northeast 440 506 37,000  Level FlightAware ADS-B
05:12AM 36.6991 -76.0252 22° Northeast 440 506 37,000  Level FlightAware ADS-B
05:13AM 36.7561 -75.9970 22° Northeast 440 506 37,000  Level FlightAware ADS-B
05:13AM 36.8141 -75.9683 22° Northeast 439 505 37,000  Level FlightAware ADS-B
05:14AM 36.8714 -75.9398 22° Northeast 439 505 37,000  Level FlightAware ADS-B
05:14AM 36.9286 -75.9114 22° Northeast 438 504 37,000  Level FlightAware ADS-B
05:15AM 36.9855 -75.8832 22° Northeast 438 504 37,000  Level FlightAware ADS-B
05:16AM 37.0674 -75.8424 22° Northeast 437 503 37,000  Level FlightAware ADS-B
05:16AM 37.1239 -75.8141 22° Northeast 437 503 37,000  Level FlightAware ADS-B
05:17AM 37.2500 -75.7490 22° Northeast 435 501 37,000  Level FlightAware
05:18AM 37.3174 -75.7173 21° North 437 503 37,000  Level FlightAware ADS-B
05:18AM 37.3751 -75.6886 22° Northeast 435 501 37,000  Level FlightAware ADS-B
05:19AM 37.4321 -75.6594 22° Northeast 433 498 37,000  Level FlightAware ADS-B
05:19AM 37.4879 -75.6309 22° Northeast 431 496 37,000  Level FlightAware ADS-B
05:20AM 37.5445 -75.6020 22° Northeast 431 496 37,000  Level FlightAware ADS-B
05:20AM 37.6012 -75.5732 22° Northeast 430 495 37,000  Level FlightAware ADS-B
05:21AM 37.6582 -75.5443 22° Northeast 430 495 37,000  Level FlightAware ADS-B
05:21AM 37.7136 -75.5162 22° Northeast 430 495 37,000  Level FlightAware ADS-B
05:22AM 37.7690 -75.4880 22° Northeast 421 484 37,000  Level FlightAware
05:23AM 37.8530 -75.4450 22° Northeast 421 484 37,000  Level FlightAware
05:23AM 37.8802 -75.4314 22° Northeast 429 494 37,000  Level FlightAware ADS-B
05:23AM 37.9355 -75.4032 22° Northeast 428 493 37,000  Level FlightAware ADS-B
05:24AM 37.9909 -75.3749 22° Northeast 428 493 37,000  Level FlightAware ADS-B
05:24AM 38.0464 -75.3464 22° Northeast 428 493 37,000  Level FlightAware ADS-B
05:25AM 38.1021 -75.3178 22° Northeast 428 493 37,000  Level FlightAware ADS-B
05:26AM 38.1656 -75.2852 22° Northeast 430 495 37,000  Level FlightAware ADS-B
05:26AM 38.2221 -75.2561 22° Northeast 430 495 37,000  Level FlightAware ADS-B
05:27AM 38.2781 -75.2272 22° Northeast 429 494 37,000  Level FlightAware ADS-B
05:27AM 38.3337 -75.1985 22° Northeast 429 494 37,000  Level FlightAware ADS-B
05:28AM 38.4289 -75.1492 22° Northeast 429 494 37,000  Level FlightAware ADS-B
05:28AM 38.4852 -75.1200 22° Northeast 428 493 37,000  Level FlightAware ADS-B
05:29AM 38.5412 -75.0909 22° Northeast 428 493 37,000  Level FlightAware ADS-B
05:29AM 38.5962 -75.0621 22° Northeast 429 494 37,000  Level FlightAware ADS-B
05:30AM 38.6516 -75.0332 22° Northeast 429 494 37,000  Level FlightAware ADS-B
05:30AM 38.7080 -75.0037 22° Northeast 429 494 37,000  Level FlightAware ADS-B
05:31AM 38.7655 -74.9737 22° Northeast 430 495 37,000 -900 Level FlightAware ADS-B
05:31AM 38.8220 -74.9441 22° Northeast 431 496 36,100 -1,680 Descending FlightAware ADS-B
05:32AM 38.8787 -74.9143 22° Northeast 424 488 35,300 -2,100 Descending FlightAware ADS-B
05:33AM 38.9336 -74.8854 22° Northeast 429 494 34,000 -2,640 Descending FlightAware ADS-B
05:33AM 38.9895 -74.8560 22° Northeast 435 501 32,700 -2,640 Descending FlightAware ADS-B
05:33AM 39.0268 -74.8362 22° Northeast 438 504 31,800 -2,700 Descending FlightAware ADS-B
05:34AM 39.0596 -74.8158 26° Northeast 442 509 31,000 -2,820 Descending FlightAware ADS-B
05:34AM 39.1003 -74.7850 30° Northeast 447 514 29,900 -2,820 Descending FlightAware ADS-B
05:34AM 39.1405 -74.7490 35° Northeast 452 520 28,800 -2,460 Descending FlightAware ADS-B
05:35AM 39.1889 -74.6977 39° Northeast 449 517 27,700 -2,220 Descending FlightAware ADS-B
05:35AM 39.2371 -74.6464 39° Northeast 448 516 26,600 -2,340 Descending FlightAware ADS-B
05:36AM 39.2855 -74.5946 40° Northeast 447 514 25,400 -2,400 Descending FlightAware ADS-B
05:36AM 39.3340 -74.5421 40° Northeast 447 514 24,200 -2,340 Descending FlightAware ADS-B
05:37AM 39.3824 -74.4895 40° Northeast 446 513 23,000 -2,340 Descending FlightAware ADS-B
05:37AM 39.4310 -74.4366 40° Northeast 444 511 21,800 -2,400 Descending FlightAware ADS-B
05:38AM 39.4785 -74.3847 40° Northeast 443 510 20,600 -2,400 Descending FlightAware ADS-B
05:38AM 39.5257 -74.3330 40° Northeast 438 504 19,400 -2,340 Descending FlightAware ADS-B
05:39AM 39.5714 -74.2830 40° Northeast 427 491 18,300 -2,100 Descending FlightAware ADS-B
05:39AM 39.6169 -74.2331 40° Northeast 418 481 17,300 -1,680 Descending FlightAware ADS-B
05:40AM 39.6602 -74.1853 40° Northeast 402 463 16,600 -1,440 Descending FlightAware ADS-B
05:40AM 39.7020 -74.1394 40° Northeast 390 449 15,900 -1,500 Descending FlightAware ADS-B
05:41AM 39.7434 -74.0939 40° Northeast 387 445 15,100 -1,440 Descending FlightAware ADS-B
05:41AM 39.7841 -74.0490 40° Northeast 381 438 14,500 -1,380 Descending FlightAware ADS-B
05:42AM 39.8280 -74.0004 40° Northeast 382 440 13,700 -1,500 Descending FlightAware ADS-B
05:42AM 39.8455 -73.9834 37° Northeast 378 435 13,400 -1,380 Descending FlightAware ADS-B
05:42AM 39.8533 -73.9771 32° Northeast 375 432 13,300 -1,860 Descending FlightAware ADS-B
05:43AM 39.8988 -73.9444 29° Northeast 375 432 12,300 -1,920 Descending FlightAware ADS-B
05:43AM 39.9454 -73.9118 28° Northeast 363 418 11,400 -1,380 Descending FlightAware ADS-B
05:44AM 39.9893 -73.8807 28° Northeast 344 396 10,900 -540 Descending FlightAware ADS-B
05:44AM 40.0267 -73.8542 28° Northeast 316 364 10,900 -240 Level FlightAware ADS-B
05:45AM 40.0667 -73.8243 30° Northeast 307 353 10,700 -1,020 Descending FlightAware ADS-B
05:45AM 40.1078 -73.7931 30° Northeast 305 351 9,800 -1,500 Descending FlightAware ADS-B
05:46AM 40.1266 -73.7790 30° Northeast 302 348 9,500 -1,440 Descending FlightAware ADS-B
05:46AM 40.1449 -73.7654 30° Northeast 299 344 9,100 -1,560 Descending FlightAware ADS-B
05:46AM 40.1632 -73.7518 30° Northeast 299 344 8,700 -1,500 Descending FlightAware ADS-B
05:46AM 40.1823 -73.7377 29° Northeast 298 343 8,300 -1,380 Descending FlightAware ADS-B
05:47AM 40.2000 -73.7246 29° Northeast 293 337 8,000 -1,440 Descending FlightAware ADS-B
05:47AM 40.2179 -73.7116 29° Northeast 295 339 7,600 -1,800 Descending FlightAware ADS-B
05:47AM 40.2372 -73.6977 29° Northeast 297 342 7,100 -1,740 Descending FlightAware ADS-B
05:47AM 40.2573 -73.6832 29° Northeast 297 342 6,700 -1,500 Descending FlightAware ADS-B
05:48AM 40.2762 -73.6696 29° Northeast 293 337 6,300 -1,380 Descending FlightAware ADS-B
05:48AM 40.2939 -73.6570 28° Northeast 289 333 6,000 -1,200 Descending FlightAware ADS-B
05:48AM 40.3116 -73.6444 28° Northeast 286 329 5,700 -1,380 Descending FlightAware ADS-B
05:49AM 40.3296 -73.6317 28° Northeast 286 329 5,300 -1,560 Descending FlightAware ADS-B
05:49AM 40.3566 -73.6124 29° Northeast 283 326 4,700 -1,560 Descending FlightAware ADS-B
05:49AM 40.3748 -73.5993 29° Northeast 281 323 4,300 -1,140 Descending FlightAware ADS-B
05:49AM 40.3935 -73.5858 29° Northeast 276 318 4,100 -780 Descending FlightAware ADS-B
05:50AM 40.4109 -73.5734 28° Northeast 265 305 3,900 -660 Descending FlightAware ADS-B
05:50AM 40.4540 -73.5420 29° Northeast 242 278 3,500 -660 Descending FlightAware
05:51AM 40.4825 -73.5210 29° Northeast 240 276 3,100 -660 Descending FlightAware ADS-B
05:51AM 40.4973 -73.5148 18° North 240 276 3,000 -360 Descending FlightAware ADS-B
05:52AM 40.5166 -73.5237 341° North 190 219 2,900 -180 Descending FlightAware ADS-B
05:52AM 40.5362 -73.5385 330° Northwest 188 216 2,900  Level FlightAware ADS-B
05:52AM 40.5463 -73.5480 324° Northwest 187 215 2,900  Level FlightAware ADS-B
05:53AM 40.5620 -73.5800 303° West 184 212 2,900 -480 Level FlightAware
05:53AM 40.5760 -73.6100 302° West 182 209 2,400 -960 Descending FlightAware